createdAt,value
2017-05-11T00:00:13.179Z,24.51
2017-05-11T00:01:15.555Z,24.51
2017-05-11T00:02:17.968Z,24.45
2017-05-11T00:03:20.351Z,24.38
2017-05-11T00:04:23.344Z,24.40
2017-05-11T00:05:25.745Z,24.45
2017-05-11T00:06:28.127Z,24.45
2017-05-11T00:07:30.519Z,24.47
2017-05-11T00:08:32.889Z,24.47
2017-05-11T00:09:35.863Z,24.45
2017-05-11T00:10:38.250Z,24.40
2017-05-11T00:11:40.642Z,24.38
2017-05-11T00:12:43.011Z,24.36
2017-05-11T00:13:45.405Z,24.40
2017-05-11T00:14:48.540Z,24.42
2017-05-11T00:15:50.932Z,24.43
2017-05-11T00:16:53.322Z,24.38
2017-05-11T00:17:55.702Z,24.43
2017-05-11T00:18:58.093Z,24.48
2017-05-11T00:20:01.069Z,24.48
2017-05-11T00:21:03.444Z,24.40
2017-05-11T00:22:05.811Z,24.45
2017-05-11T00:23:08.183Z,24.45
2017-05-11T00:24:10.571Z,24.42
2017-05-11T00:25:15.432Z,24.42
2017-05-11T00:26:18.023Z,24.42
2017-05-11T00:27:20.393Z,24.42
2017-05-11T00:28:22.816Z,24.35
2017-05-11T02:18:27.324Z,23.91
2017-05-11T02:19:29.662Z,23.88
2017-05-11T02:20:32.034Z,23.84
2017-05-11T02:21:34.404Z,23.88
2017-05-11T02:22:36.784Z,23.83
2017-05-11T02:23:39.745Z,23.69
2017-05-11T02:24:42.109Z,23.73
2017-05-11T02:25:44.469Z,23.71
2017-05-11T02:26:46.841Z,23.71
2017-05-11T02:27:49.193Z,23.74
2017-05-11T02:28:52.203Z,23.76
2017-05-11T02:29:54.586Z,23.71
2017-05-11T02:30:56.976Z,23.71
2017-05-11T02:31:59.341Z,23.76
2017-05-11T02:33:01.714Z,23.71
2017-05-11T02:34:04.675Z,23.71
2017-05-11T02:35:07.064Z,23.69
2017-05-11T02:36:09.430Z,23.71
2017-05-11T02:37:11.818Z,23.74
2017-05-11T02:38:14.204Z,23.76
2017-05-11T02:39:17.173Z,23.71
2017-05-11T02:40:19.573Z,23.73
2017-05-11T02:41:21.967Z,23.71
2017-05-11T02:42:24.350Z,23.77
2017-05-11T02:43:26.721Z,23.71
2017-05-11T02:44:30.909Z,23.74
2017-05-11T02:45:33.282Z,23.71
2017-05-11T02:46:35.673Z,23.69
2017-05-11T02:47:38.064Z,23.71
2017-05-11T02:48:40.446Z,23.71
2017-05-11T02:49:43.425Z,23.76
2017-05-11T02:50:45.794Z,23.80
2017-05-11T02:51:48.158Z,23.71
2017-05-11T02:52:50.550Z,23.69
2017-05-11T02:53:52.938Z,23.73
2017-05-11T02:54:55.919Z,23.74
2017-05-11T02:55:58.297Z,23.76
2017-05-11T02:57:00.646Z,23.71
2017-05-11T02:58:03.012Z,23.73
2017-05-11T02:59:05.391Z,23.73
2017-05-11T03:00:08.400Z,23.73
2017-05-11T03:01:10.769Z,23.71
2017-05-11T03:02:13.142Z,23.78
2017-05-11T03:03:15.511Z,23.69
2017-05-11T03:04:17.870Z,23.77
2017-05-11T03:05:20.951Z,23.76
2017-05-11T03:06:23.313Z,23.66
2017-05-11T03:07:25.703Z,23.74
2017-05-11T03:08:28.090Z,23.73
2017-05-11T03:09:30.472Z,23.68
2017-05-11T03:10:33.620Z,23.77
2017-05-11T03:11:36.009Z,23.73
2017-05-11T03:12:38.401Z,23.73
2017-05-11T03:13:40.777Z,23.78
2017-05-11T03:14:43.367Z,23.76
2017-05-11T03:15:46.518Z,23.71
2017-05-11T03:16:48.908Z,23.71
2017-05-11T03:17:51.488Z,23.68
2017-05-11T03:18:53.867Z,23.71
2017-05-11T03:19:56.249Z,23.66
2017-05-11T03:20:59.341Z,23.62
2017-05-11T03:22:01.703Z,23.71
2017-05-11T03:23:04.067Z,23.68
2017-05-11T03:24:06.455Z,23.66
2017-05-11T03:25:08.847Z,23.58
2017-05-11T03:26:11.963Z,23.71
2017-05-11T03:27:14.347Z,23.63
2017-05-11T03:28:16.708Z,23.61
2017-05-11T03:29:19.070Z,23.62
2017-05-11T03:30:21.468Z,23.62
2017-05-11T03:31:24.418Z,23.65
2017-05-11T03:32:26.810Z,23.62
2017-05-11T03:33:29.161Z,23.69
2017-05-11T03:34:31.555Z,23.63
2017-05-11T03:35:33.938Z,23.55
2017-05-11T03:36:36.925Z,23.56
2017-05-11T03:37:39.287Z,23.56
2017-05-11T03:38:41.665Z,23.59
2017-05-11T03:39:44.023Z,23.61
2017-05-11T03:40:46.411Z,23.56
2017-05-11T03:41:51.291Z,23.73
2017-05-11T03:42:53.663Z,23.56
2017-05-11T03:43:56.022Z,23.50
2017-05-11T03:44:58.378Z,23.55
2017-05-11T03:46:00.742Z,23.58
2017-05-11T03:47:03.799Z,23.55
2017-05-11T03:48:06.157Z,23.58
2017-05-11T03:49:08.523Z,23.56
2017-05-11T03:50:10.891Z,23.56
2017-05-11T03:51:13.267Z,23.56
2017-05-11T03:52:16.334Z,23.56
2017-05-11T03:53:18.711Z,23.62
2017-05-11T03:54:21.069Z,23.50
2017-05-11T03:55:23.440Z,23.48
2017-05-11T03:56:25.847Z,23.54
2017-05-11T03:57:28.795Z,23.46
2017-05-11T03:58:31.164Z,23.46
2017-05-11T03:59:33.727Z,23.44
2017-05-11T04:00:36.091Z,23.40
2017-05-11T04:01:38.496Z,23.40
2017-05-11T04:02:41.451Z,23.32
2017-05-11T04:03:43.841Z,23.39
2017-05-11T04:04:46.207Z,23.37
2017-05-11T04:05:48.793Z,23.36
2017-05-11T04:06:51.189Z,23.28
2017-05-11T04:07:54.559Z,23.36
2017-05-11T04:08:56.909Z,23.39
2017-05-11T04:09:59.302Z,23.36
2017-05-11T04:11:01.673Z,23.43
2017-05-11T04:12:04.036Z,23.37
2017-05-11T04:13:07.004Z,23.41
2017-05-11T04:14:09.391Z,23.40
2017-05-11T04:15:11.743Z,23.37
2017-05-11T04:16:14.136Z,23.34
2017-05-11T04:17:16.498Z,23.37
2017-05-11T04:18:19.456Z,23.27
2017-05-11T04:19:21.821Z,23.41
2017-05-11T04:20:24.186Z,23.40
2017-05-11T04:21:26.561Z,23.47
2017-05-11T04:22:28.931Z,23.43
2017-05-11T04:23:31.900Z,23.41
2017-05-11T04:24:34.275Z,23.50
2017-05-11T04:25:36.653Z,23.48
2017-05-11T04:26:39.014Z,23.47
2017-05-11T04:27:41.381Z,23.58
2017-05-11T04:28:44.374Z,23.55
2017-05-11T04:29:46.743Z,23.56
2017-05-11T04:30:49.103Z,23.47
2017-05-11T04:31:51.467Z,23.46
2017-05-11T04:32:53.822Z,23.55
2017-05-11T04:33:56.895Z,23.47
2017-05-11T04:34:59.254Z,23.41
2017-05-11T04:36:01.642Z,23.48
2017-05-11T04:37:04.020Z,23.48
2017-05-11T04:38:06.413Z,23.54
2017-05-11T04:39:09.540Z,23.44
2017-05-11T04:40:11.922Z,23.54
2017-05-11T04:41:14.283Z,23.40
2017-05-11T04:42:16.667Z,23.51
2017-05-11T04:43:19.030Z,23.50
2017-05-11T04:44:21.990Z,23.47
2017-05-11T04:45:24.347Z,23.48
2017-05-11T04:46:26.713Z,23.50
2017-05-11T04:47:29.057Z,23.48
2017-05-11T04:48:31.451Z,23.54
2017-05-11T04:49:34.424Z,23.43
2017-05-11T04:50:36.782Z,23.58
2017-05-11T04:51:39.141Z,23.51
2017-05-11T04:52:41.531Z,23.46
2017-05-11T04:53:43.897Z,23.43
2017-05-11T04:54:46.854Z,23.54
2017-05-11T04:55:49.227Z,23.54
2017-05-11T04:56:51.604Z,23.41
2017-05-11T04:57:53.990Z,23.46
2017-05-11T04:58:56.367Z,23.54
2017-05-11T04:59:59.331Z,23.54
2017-05-11T05:01:01.726Z,23.50
2017-05-11T05:02:04.108Z,23.50
2017-05-11T05:03:06.487Z,23.48
2017-05-11T05:04:08.879Z,23.56
2017-05-11T05:05:12.028Z,23.51
2017-05-11T05:06:14.431Z,23.55
2017-05-11T05:07:17.010Z,23.44
2017-05-11T05:08:19.396Z,23.48
2017-05-11T05:09:21.774Z,23.48
2017-05-11T05:10:24.885Z,23.48
2017-05-11T05:11:27.268Z,23.47
2017-05-11T05:12:29.658Z,23.46
2017-05-11T05:13:32.052Z,23.39
2017-05-11T05:14:34.422Z,23.32
2017-05-11T05:15:37.615Z,23.39
2017-05-11T05:16:39.994Z,23.34
2017-05-11T05:17:42.376Z,23.36
2017-05-11T05:18:44.749Z,23.34
2017-05-11T05:19:47.330Z,23.34
2017-05-11T05:20:52.207Z,23.27
2017-05-11T05:21:54.605Z,23.28
2017-05-11T05:22:56.968Z,23.24
2017-05-11T05:23:59.326Z,23.23
2017-05-11T05:25:01.687Z,23.23
2017-05-11T05:26:04.649Z,23.21
2017-05-11T05:27:07.020Z,23.23
2017-05-11T05:28:09.374Z,23.25
2017-05-11T05:29:11.941Z,23.23
2017-05-11T05:30:14.307Z,23.27
2017-05-11T05:31:17.374Z,23.27
2017-05-11T05:32:19.758Z,23.18
2017-05-11T05:33:22.121Z,23.27
2017-05-11T05:34:24.493Z,23.15
2017-05-11T05:35:26.869Z,23.13
2017-05-11T05:36:29.940Z,23.08
2017-05-11T05:37:32.299Z,23.08
2017-05-11T05:38:34.673Z,23.09
2017-05-11T05:39:37.047Z,23.10
2017-05-11T05:40:39.400Z,23.02
2017-05-11T05:41:42.366Z,23.03
2017-05-11T05:42:44.724Z,23.03
2017-05-11T05:43:47.079Z,23.08
2017-05-11T05:44:49.442Z,23.08
2017-05-11T05:45:51.837Z,23.06
2017-05-11T05:46:54.788Z,23.06
2017-05-11T05:47:57.145Z,23.05
2017-05-11T05:48:59.507Z,23.02
2017-05-11T05:50:01.880Z,23.10
2017-05-11T05:51:04.239Z,23.03
2017-05-11T05:52:07.217Z,23.10
2017-05-11T05:53:09.564Z,23.03
2017-05-11T05:54:11.927Z,23.08
2017-05-11T05:55:14.294Z,23.02
2017-05-11T05:56:16.651Z,23.08
2017-05-11T05:57:19.616Z,23.00
2017-05-11T05:58:21.975Z,23.12
2017-05-11T05:59:24.341Z,22.96
2017-05-11T06:00:26.698Z,23.02
2017-05-11T06:01:29.065Z,23.02
2017-05-11T06:02:32.024Z,23.00
2017-05-11T06:03:34.389Z,22.96
2017-05-11T06:04:36.746Z,22.93
2017-05-11T06:05:39.111Z,22.93
2017-05-11T06:06:41.464Z,22.96
2017-05-11T06:07:44.537Z,22.91
2017-05-11T06:08:46.897Z,22.91
2017-05-11T06:09:49.256Z,22.80
2017-05-11T06:10:51.616Z,22.84
2017-05-11T06:11:53.967Z,22.87
2017-05-11T06:12:57.037Z,22.85
2017-05-11T06:13:59.596Z,22.78
2017-05-11T06:15:01.976Z,22.81
2017-05-11T06:16:04.322Z,22.83
2017-05-11T06:17:06.683Z,22.81
2017-05-11T06:18:09.645Z,22.75
2017-05-11T06:19:12.005Z,22.81
2017-05-11T06:20:14.363Z,22.70
2017-05-11T06:21:16.727Z,22.72
2017-05-11T06:22:19.099Z,22.75
2017-05-11T06:23:22.154Z,22.73
2017-05-11T06:24:24.513Z,22.70
2017-05-11T06:25:26.871Z,22.65
2017-05-11T06:26:29.231Z,22.65
2017-05-11T06:27:31.588Z,22.63
2017-05-11T06:28:34.546Z,22.72
2017-05-11T06:29:36.915Z,22.65
2017-05-11T06:30:39.281Z,22.72
2017-05-11T06:31:41.632Z,22.70
2017-05-11T06:32:43.993Z,22.73
2017-05-11T06:33:47.050Z,22.72
2017-05-11T06:34:49.420Z,22.75
2017-05-11T06:35:51.784Z,22.68
2017-05-11T06:36:54.141Z,22.72
2017-05-11T06:37:56.511Z,22.69
2017-05-11T06:38:59.478Z,22.63
2017-05-11T06:40:01.826Z,22.62
2017-05-11T06:41:04.185Z,22.70
2017-05-11T06:42:06.538Z,22.66
2017-05-11T06:43:08.900Z,22.63
2017-05-11T06:44:11.969Z,22.60
2017-05-11T06:45:14.329Z,22.59
2017-05-11T06:46:16.686Z,22.60
2017-05-11T06:47:19.045Z,22.62
2017-05-11T06:48:21.403Z,22.57
2017-05-11T06:49:24.355Z,22.59
2017-05-11T06:50:26.717Z,22.57
2017-05-11T06:51:29.087Z,22.59
2017-05-11T06:52:31.436Z,22.57
2017-05-11T06:53:33.797Z,22.55
2017-05-11T06:54:36.762Z,22.63
2017-05-11T06:55:39.116Z,22.60
2017-05-11T06:56:41.475Z,22.59
2017-05-11T06:57:43.837Z,22.54
2017-05-11T06:58:46.196Z,22.57
2017-05-11T06:59:49.269Z,22.57
2017-05-11T07:00:51.623Z,22.59
2017-05-11T07:01:54.001Z,22.59
2017-05-11T07:02:56.366Z,22.55
2017-05-11T07:03:58.715Z,22.57
2017-05-11T07:05:01.677Z,22.57
2017-05-11T07:06:04.031Z,22.62
2017-05-11T07:07:06.394Z,22.54
2017-05-11T07:08:08.756Z,22.59
2017-05-11T07:09:11.112Z,22.54
2017-05-11T07:10:14.177Z,22.55
2017-05-11T07:11:16.539Z,22.62
2017-05-11T07:12:18.905Z,22.60
2017-05-11T07:13:21.258Z,22.65
2017-05-11T07:14:23.627Z,22.55
2017-05-11T07:15:26.583Z,22.65
2017-05-11T07:16:28.943Z,22.63
2017-05-11T07:17:31.297Z,22.62
2017-05-11T07:18:33.662Z,22.62
2017-05-11T07:19:36.016Z,22.60
2017-05-11T07:20:39.072Z,22.62
2017-05-11T07:21:41.454Z,22.69
2017-05-11T07:22:43.812Z,22.62
2017-05-11T07:23:46.166Z,22.70
2017-05-11T07:24:48.521Z,22.63
2017-05-11T07:25:51.480Z,22.69
2017-05-11T07:26:53.839Z,22.65
2017-05-11T07:27:56.201Z,22.63
2017-05-11T07:28:58.560Z,22.70
2017-05-11T07:30:00.918Z,22.69
2017-05-11T07:31:03.984Z,22.70
2017-05-11T07:32:06.339Z,22.80
2017-05-11T07:33:08.705Z,22.83
2017-05-11T07:34:11.063Z,22.84
2017-05-11T07:35:13.421Z,22.81
2017-05-11T07:36:16.390Z,22.84
2017-05-11T07:37:18.749Z,22.80
2017-05-11T07:38:21.112Z,22.84
2017-05-11T07:39:23.470Z,22.84
2017-05-11T07:40:25.834Z,22.80
2017-05-11T07:41:28.931Z,22.81
2017-05-11T07:42:31.289Z,22.85
2017-05-11T07:43:33.645Z,22.81
2017-05-11T07:44:36.006Z,22.83
2017-05-11T07:45:38.364Z,22.83
2017-05-11T07:46:41.419Z,22.83
2017-05-11T07:47:43.777Z,22.85
2017-05-11T07:48:46.135Z,22.80
2017-05-11T07:49:48.501Z,22.83
2017-05-11T07:50:50.867Z,22.85
2017-05-11T07:51:53.829Z,22.83
2017-05-11T07:52:56.188Z,22.78
2017-05-11T07:53:58.548Z,22.78
2017-05-11T07:55:00.904Z,22.88
2017-05-11T07:56:03.263Z,22.83
2017-05-11T07:57:06.234Z,22.83
2017-05-11T07:58:08.585Z,22.85
2017-05-11T07:59:10.956Z,22.84
2017-05-11T08:00:13.314Z,22.84
2017-05-11T08:01:15.667Z,22.87
2017-05-11T08:02:18.623Z,22.85
2017-05-11T08:03:20.980Z,22.81
2017-05-11T08:04:23.339Z,22.80
2017-05-11T08:05:25.694Z,22.83
2017-05-11T08:06:28.054Z,22.83
2017-05-11T08:07:31.016Z,22.76
2017-05-11T08:08:33.369Z,22.78
2017-05-11T08:09:35.728Z,22.80
2017-05-11T08:10:38.094Z,22.83
2017-05-11T08:11:40.459Z,22.78
2017-05-11T08:12:43.418Z,22.83
2017-05-11T08:13:45.774Z,22.85
2017-05-11T08:14:48.131Z,22.80
2017-05-11T08:15:50.485Z,22.81
2017-05-11T08:16:52.854Z,22.81
2017-05-11T08:17:55.825Z,22.81
2017-05-11T08:18:58.180Z,22.83
2017-05-11T08:20:00.536Z,22.83
2017-05-11T08:21:02.896Z,22.85
2017-05-11T08:22:05.269Z,22.83
2017-05-11T08:23:08.318Z,22.83
2017-05-11T08:24:10.680Z,22.84
2017-05-11T08:25:13.037Z,22.83
2017-05-11T08:26:15.406Z,22.80
2017-05-11T08:27:17.763Z,22.73
2017-05-11T08:28:20.717Z,22.75
2017-05-11T08:29:23.082Z,22.73
2017-05-11T08:30:25.443Z,22.66
2017-05-11T08:31:27.807Z,22.73
2017-05-11T08:32:30.162Z,22.80
2017-05-11T08:33:33.119Z,22.72
2017-05-11T08:34:35.476Z,22.81
2017-05-11T08:35:37.835Z,22.84
2017-05-11T08:36:40.199Z,22.84
2017-05-11T08:37:42.568Z,22.81
2017-05-11T08:38:45.529Z,22.81
2017-05-11T08:39:47.894Z,22.84
2017-05-11T08:40:50.258Z,22.81
2017-05-11T08:41:52.608Z,22.80
2017-05-11T08:42:54.974Z,22.91
2017-05-11T08:43:58.026Z,22.93
2017-05-11T08:45:00.387Z,22.96
2017-05-11T08:46:02.749Z,22.91
2017-05-11T08:47:05.097Z,22.85
2017-05-11T08:48:07.469Z,22.88
2017-05-11T08:49:10.523Z,22.85
2017-05-11T08:50:12.886Z,22.88
2017-05-11T08:51:15.247Z,22.87
2017-05-11T08:52:17.595Z,22.91
2017-05-11T08:53:19.958Z,22.88
2017-05-11T08:54:23.021Z,22.81
2017-05-11T08:55:25.383Z,22.90
2017-05-11T08:56:27.748Z,22.84
2017-05-11T08:57:30.113Z,22.80
2017-05-11T08:58:32.465Z,22.84
2017-05-11T08:59:35.426Z,22.78
2017-05-11T09:00:37.788Z,22.84
2017-05-11T09:01:40.149Z,22.78
2017-05-11T09:02:42.504Z,22.81
2017-05-11T09:03:44.862Z,22.81
2017-05-11T09:04:47.818Z,22.84
2017-05-11T09:05:50.173Z,22.83
2017-05-11T09:06:52.533Z,22.80
2017-05-11T09:07:54.888Z,22.81
2017-05-11T09:08:57.246Z,22.75
2017-05-11T09:10:00.200Z,22.81
2017-05-11T09:11:02.556Z,22.76
2017-05-11T09:12:04.922Z,22.80
2017-05-11T09:13:07.280Z,22.83
2017-05-11T09:14:09.641Z,22.80
2017-05-11T09:15:12.596Z,22.83
2017-05-11T09:16:14.961Z,22.85
2017-05-11T09:17:17.318Z,22.84
2017-05-11T09:18:19.690Z,22.80
2017-05-11T09:19:22.044Z,22.85
2017-05-11T09:20:25.004Z,22.81
2017-05-11T09:21:27.372Z,22.83
2017-05-11T09:22:29.721Z,22.81
2017-05-11T09:23:32.081Z,22.90
2017-05-11T09:24:34.450Z,22.81
2017-05-11T09:25:37.408Z,22.88
2017-05-11T09:26:39.775Z,22.84
2017-05-11T09:27:42.130Z,22.93
2017-05-11T09:28:44.495Z,22.90
2017-05-11T09:29:46.857Z,22.85
2017-05-11T09:30:49.916Z,22.83
2017-05-11T09:31:52.292Z,22.81
2017-05-11T09:32:54.647Z,22.83
2017-05-11T09:33:57.000Z,22.78
2017-05-11T09:34:59.358Z,22.85
2017-05-11T09:36:02.419Z,22.88
2017-05-11T09:37:04.778Z,22.83
2017-05-11T09:38:07.136Z,22.80
2017-05-11T09:39:09.492Z,22.87
2017-05-11T09:40:11.855Z,22.81
2017-05-11T09:41:14.924Z,22.85
2017-05-11T09:42:17.286Z,22.76
2017-05-11T09:43:19.635Z,22.78
2017-05-11T09:44:22.009Z,22.65
2017-05-11T09:45:24.367Z,22.69
2017-05-11T09:46:27.419Z,22.62
2017-05-11T09:47:29.776Z,22.59
2017-05-11T09:48:32.136Z,22.55
2017-05-11T09:49:34.494Z,22.57
2017-05-11T09:50:36.860Z,22.59
2017-05-11T09:51:39.917Z,22.57
2017-05-11T09:52:42.279Z,22.55
2017-05-11T09:53:44.639Z,22.65
2017-05-11T10:08:35.281Z,22.54
2017-05-11T10:09:37.639Z,22.59
2017-05-11T10:10:39.997Z,22.62
2017-05-11T10:11:42.360Z,22.57
2017-05-11T10:12:44.711Z,22.57
2017-05-11T10:13:47.776Z,22.57
2017-05-11T10:14:50.126Z,22.54
2017-05-11T10:15:52.484Z,22.54
2017-05-11T10:16:54.849Z,22.60
2017-05-11T10:17:57.204Z,22.62
2017-05-11T10:19:00.163Z,22.51
2017-05-11T10:20:02.513Z,22.50
2017-05-11T10:21:04.872Z,22.51
2017-05-11T10:22:07.231Z,22.41
2017-05-11T10:23:09.596Z,22.54
2017-05-11T10:24:12.645Z,22.54
2017-05-11T10:25:15.001Z,22.50
2017-05-11T10:26:17.363Z,22.53
2017-05-11T10:27:19.725Z,22.45
2017-05-11T10:28:22.079Z,22.62
2017-05-11T10:29:25.139Z,22.60
2017-05-11T10:30:27.500Z,22.59
2017-05-11T10:31:29.853Z,22.51
2017-05-11T10:32:32.211Z,22.55
2017-05-11T10:33:34.571Z,22.53
2017-05-11T10:34:37.533Z,22.57
2017-05-11T10:35:39.885Z,22.50
2017-05-11T10:36:42.238Z,22.47
2017-05-11T10:37:44.601Z,22.50
2017-05-11T10:38:46.972Z,22.39
2017-05-11T10:39:50.026Z,22.48
2017-05-11T10:40:52.390Z,22.43
2017-05-11T10:41:54.752Z,22.47
2017-05-11T10:42:57.116Z,22.41
2017-05-11T10:43:59.470Z,22.47
2017-05-11T10:45:02.522Z,22.45
2017-05-11T10:46:04.881Z,22.50
2017-05-11T10:47:07.250Z,22.45
2017-05-11T10:48:09.611Z,22.44
2017-05-11T10:49:11.980Z,22.45
2017-05-11T10:50:15.022Z,22.50
2017-05-11T10:51:17.384Z,22.47
2017-05-11T10:52:19.741Z,22.43
2017-05-11T10:53:22.108Z,22.44
2017-05-11T10:54:24.465Z,22.50
2017-05-11T10:55:27.442Z,22.39
2017-05-11T10:56:29.795Z,22.45
2017-05-11T10:57:32.154Z,22.50
2017-05-11T10:58:34.517Z,22.53
2017-05-11T10:59:36.867Z,22.50
2017-05-11T11:00:39.928Z,22.44
2017-05-11T11:01:42.282Z,22.44
2017-05-11T11:02:44.641Z,22.43
2017-05-11T11:03:47.000Z,22.43
2017-05-11T11:04:49.354Z,22.44
2017-05-11T11:05:52.317Z,22.41
2017-05-11T11:06:54.678Z,22.43
2017-05-11T11:07:57.034Z,22.50
2017-05-11T11:08:59.398Z,22.47
2017-05-11T11:10:01.758Z,22.38
2017-05-11T11:11:04.824Z,22.48
2017-05-11T11:12:07.184Z,22.43
2017-05-11T11:13:09.533Z,22.48
2017-05-11T11:14:11.897Z,22.53
2017-05-11T11:15:14.253Z,22.59
2017-05-11T11:16:17.362Z,22.63
2017-05-11T11:17:19.723Z,22.55
2017-05-11T11:18:22.071Z,22.59
2017-05-11T11:19:24.443Z,22.66
2017-05-11T11:20:26.801Z,22.66
2017-05-11T11:21:29.864Z,22.70
2017-05-11T11:22:32.218Z,22.72
2017-05-11T11:23:34.582Z,22.70
2017-05-11T11:24:36.951Z,22.65
2017-05-11T11:25:39.315Z,22.63
2017-05-11T11:26:42.317Z,22.69
2017-05-11T11:27:44.645Z,22.75
2017-05-11T11:28:46.999Z,22.68
2017-05-11T11:29:49.362Z,22.66
2017-05-11T11:30:51.739Z,22.75
2017-05-11T11:31:54.685Z,22.73
2017-05-11T11:32:57.042Z,22.75
2017-05-11T11:33:59.401Z,22.81
2017-05-11T11:35:01.757Z,22.83
2017-05-11T11:36:04.125Z,22.83
2017-05-11T11:37:07.072Z,22.84
2017-05-11T11:38:09.428Z,22.80
2017-05-11T11:39:11.783Z,22.80
2017-05-11T11:40:14.141Z,22.84
2017-05-11T11:41:16.504Z,22.83
2017-05-11T11:42:19.422Z,22.83
2017-05-11T11:43:21.774Z,22.87
2017-05-11T11:44:24.139Z,22.81
2017-05-11T11:45:26.493Z,22.83
2017-05-11T11:46:28.857Z,22.93
2017-05-11T11:47:31.820Z,22.90
2017-05-11T11:48:34.179Z,22.81
2017-05-11T11:49:36.547Z,22.84
2017-05-11T11:50:38.911Z,22.80
2017-05-11T11:51:41.268Z,22.81
2017-05-11T11:52:44.233Z,22.90
2017-05-11T11:53:46.599Z,22.80
2017-05-11T11:54:48.969Z,22.90
2017-05-11T11:55:51.331Z,22.83
2017-05-11T11:56:53.702Z,22.83
2017-05-11T11:57:56.750Z,22.83
2017-05-11T11:58:59.110Z,22.84
2017-05-11T12:00:01.467Z,22.90
2017-05-11T12:01:03.832Z,22.90
2017-05-11T12:02:06.189Z,22.93
2017-05-11T12:03:09.160Z,22.81
2017-05-11T12:04:11.524Z,22.81
2017-05-11T12:05:13.879Z,22.80
2017-05-11T12:06:16.246Z,22.91
2017-05-11T12:07:18.610Z,22.90
2017-05-11T12:08:21.678Z,22.93
2017-05-11T12:09:24.038Z,22.87
2017-05-11T12:10:26.401Z,22.87
2017-05-11T12:11:28.758Z,22.91
2017-05-11T12:12:31.124Z,22.88
2017-05-11T12:13:34.197Z,22.88
2017-05-11T12:14:36.586Z,22.88
2017-05-11T12:15:38.912Z,22.94
2017-05-11T12:16:41.288Z,23.02
2017-05-11T12:17:43.650Z,22.90
2017-05-11T12:18:46.619Z,23.05
2017-05-11T12:19:48.975Z,23.02
2017-05-11T12:20:51.342Z,23.02
2017-05-11T12:21:53.701Z,23.00
2017-05-11T12:22:56.064Z,23.00
2017-05-11T12:23:59.139Z,23.05
2017-05-11T12:25:01.495Z,23.03
2017-05-11T12:26:03.853Z,22.98
2017-05-11T12:27:06.221Z,22.99
2017-05-11T12:28:08.586Z,22.96
2017-05-11T12:29:11.651Z,23.03
2017-05-11T12:30:14.011Z,23.05
2017-05-11T12:31:16.380Z,23.03
2017-05-11T12:32:18.756Z,23.06
2017-05-11T12:33:21.109Z,23.10
2017-05-11T12:34:24.185Z,23.13
2017-05-11T12:35:26.543Z,23.05
2017-05-11T12:36:28.907Z,23.10
2017-05-11T12:37:31.311Z,23.10
2017-05-11T12:38:33.630Z,23.10
2017-05-11T12:39:36.694Z,23.17
2017-05-11T12:40:39.050Z,23.17
2017-05-11T12:41:41.422Z,23.17
2017-05-11T12:42:43.784Z,23.12
2017-05-11T12:43:46.138Z,23.20
2017-05-11T12:44:49.214Z,23.15
2017-05-11T12:45:51.575Z,23.17
2017-05-11T12:46:53.949Z,23.20
2017-05-11T12:47:56.305Z,23.13
2017-05-11T12:48:58.679Z,23.17
2017-05-11T12:50:01.750Z,23.21
2017-05-11T12:51:04.123Z,23.27
2017-05-11T12:52:06.480Z,23.28
2017-05-11T12:53:08.844Z,23.31
2017-05-11T12:54:11.214Z,23.34
2017-05-11T12:55:14.328Z,23.36
2017-05-11T12:56:16.648Z,23.24
2017-05-11T12:57:19.010Z,23.27
2017-05-11T12:58:21.385Z,23.21
2017-05-11T12:59:23.748Z,23.24
2017-05-11T13:00:26.716Z,23.32
2017-05-11T13:01:29.083Z,23.34
2017-05-11T13:02:31.440Z,23.23
2017-05-11T13:03:33.807Z,23.23
2017-05-11T13:04:36.172Z,23.39
2017-05-11T13:05:39.143Z,23.40
2017-05-11T13:06:41.500Z,23.44
2017-05-11T13:07:43.866Z,23.54
2017-05-11T13:08:46.231Z,23.58
2017-05-11T13:09:48.588Z,23.56
2017-05-11T13:10:51.553Z,23.50
2017-05-11T13:11:53.922Z,23.50
2017-05-11T13:12:56.287Z,23.47
2017-05-11T13:13:58.658Z,23.59
2017-05-11T13:15:01.031Z,23.55
2017-05-11T13:16:03.993Z,23.59
2017-05-11T13:17:06.358Z,23.65
2017-05-11T13:18:08.720Z,23.56
2017-05-11T13:19:11.083Z,23.55
2017-05-11T13:20:13.452Z,23.55
2017-05-11T13:21:16.516Z,23.56
2017-05-11T13:22:18.885Z,23.58
2017-05-11T13:23:21.250Z,23.73
2017-05-11T13:24:23.623Z,23.80
2017-05-11T13:25:25.992Z,23.84
2017-05-11T13:26:28.909Z,23.81
2017-05-11T13:27:31.293Z,23.92
2017-05-11T13:28:33.658Z,23.91
2017-05-11T13:29:36.021Z,23.91
2017-05-11T13:30:38.397Z,23.86
2017-05-11T13:31:41.368Z,23.95
2017-05-11T13:32:43.731Z,23.98
2017-05-11T13:33:46.107Z,24.21
2017-05-11T13:34:48.480Z,24.29
2017-05-11T13:35:50.852Z,24.45
2017-05-11T13:36:53.920Z,24.50
2017-05-11T13:37:56.289Z,24.53
2017-05-11T13:38:58.654Z,24.53
2017-05-11T13:40:01.021Z,24.54
2017-05-11T13:41:03.394Z,24.53
2017-05-11T13:42:06.374Z,24.39
2017-05-11T13:43:08.739Z,24.57
2017-05-11T13:44:11.106Z,24.53
2017-05-11T13:45:13.467Z,24.65
2017-05-11T13:46:15.839Z,24.66
2017-05-11T13:47:18.808Z,24.58
2017-05-11T13:48:21.178Z,24.63
2017-05-11T13:49:23.549Z,24.47
2017-05-11T13:50:25.921Z,24.54
2017-05-11T13:51:28.287Z,24.54
2017-05-11T13:52:31.259Z,24.55
2017-05-11T13:53:33.626Z,24.50
2017-05-11T13:54:35.992Z,24.45
2017-05-11T13:55:38.358Z,24.50
2017-05-11T13:56:40.727Z,24.51
2017-05-11T13:57:43.697Z,24.51
2017-05-11T13:58:46.068Z,24.51
2017-05-11T13:59:48.434Z,24.50
2017-05-11T14:00:50.803Z,24.63
2017-05-11T14:01:53.186Z,24.80
2017-05-11T14:02:56.355Z,24.85
2017-05-11T14:03:58.727Z,24.98
2017-05-11T14:05:01.101Z,25.01
2017-05-11T14:06:03.466Z,25.04
2017-05-11T14:07:05.837Z,25.08
2017-05-11T14:08:08.768Z,25.10
2017-05-11T14:09:11.433Z,25.18
2017-05-11T14:10:14.190Z,25.26
2017-05-11T14:11:16.762Z,25.17
2017-05-11T14:12:19.727Z,25.26
2017-05-11T14:13:23.027Z,25.32
2017-05-11T14:14:25.489Z,25.43
2017-05-11T14:15:28.056Z,25.59
2017-05-11T14:16:30.644Z,25.40
2017-05-11T14:17:32.962Z,25.36
2017-05-11T14:18:36.089Z,25.36
2017-05-11T14:19:38.385Z,25.36
2017-05-11T14:20:40.742Z,25.33
2017-05-11T14:21:43.065Z,25.48
2017-05-11T14:22:45.937Z,25.54
2017-05-11T14:23:51.422Z,25.55
2017-05-11T14:24:53.629Z,25.48
2017-05-11T14:25:56.105Z,25.44
2017-05-11T14:26:58.518Z,25.54
2017-05-11T14:28:01.921Z,25.55
2017-05-11T14:29:04.771Z,25.50
2017-05-11T14:30:07.176Z,25.55
2017-05-11T14:31:09.440Z,25.59
2017-05-11T14:32:11.954Z,25.63
2017-05-11T14:33:14.757Z,25.72
2017-05-11T14:34:18.281Z,25.80
2017-05-11T14:35:20.738Z,25.80
2017-05-11T14:36:23.258Z,25.81
2017-05-11T14:37:25.885Z,25.78
2017-05-11T14:38:28.566Z,25.78
2017-05-11T14:39:31.635Z,25.83
2017-05-11T14:40:36.130Z,25.78
2017-05-11T14:41:37.822Z,26.06
2017-05-11T14:42:40.281Z,26.06
2017-05-11T14:43:42.686Z,25.96
2017-05-11T14:44:45.823Z,25.83
2017-05-11T14:45:48.577Z,25.99
2017-05-11T14:46:50.939Z,26.05
2017-05-11T14:47:53.294Z,26.15
2017-05-11T14:48:56.146Z,26.16
2017-05-11T14:49:59.046Z,26.05
2017-05-11T14:51:01.715Z,26.07
2017-05-11T14:52:04.080Z,26.15
2017-05-11T14:53:06.500Z,26.18
2017-05-11T14:54:08.977Z,26.23
2017-05-11T14:55:12.108Z,26.38
2017-05-11T14:56:14.544Z,26.51
2017-05-11T14:57:17.102Z,26.44
2017-05-11T14:58:19.544Z,26.44
2017-05-11T14:59:21.998Z,26.28
2017-05-11T15:00:25.352Z,26.33
2017-05-11T15:01:28.359Z,26.36
2017-05-11T15:02:30.726Z,26.29
2017-05-11T15:03:32.997Z,26.51
2017-05-11T15:04:35.544Z,26.65
2017-05-11T15:05:38.533Z,26.58
2017-05-11T15:06:41.721Z,26.83
2017-05-11T15:07:43.906Z,26.92
2017-05-11T15:08:46.495Z,27.05
2017-05-11T15:09:48.871Z,27.08
2017-05-11T15:10:51.843Z,27.02
2017-05-11T15:11:54.317Z,26.99
2017-05-11T15:12:57.924Z,26.84
2017-05-11T15:13:59.371Z,26.97
2017-05-11T15:15:03.026Z,27.17
2017-05-11T15:16:06.002Z,27.08
2017-05-11T15:17:08.386Z,27.07
2017-05-11T15:18:10.755Z,26.99
2017-05-11T15:19:13.334Z,26.99
2017-05-11T15:20:15.532Z,26.77
2017-05-11T15:21:18.629Z,26.63
2017-05-11T15:22:21.136Z,26.59
2017-05-11T15:23:23.352Z,26.36
2017-05-11T15:24:28.510Z,26.43
2017-05-11T15:25:32.238Z,26.56
2017-05-11T15:26:35.331Z,26.43
2017-05-11T15:27:37.735Z,26.40